createdAt,value
2018-03-27T00:01:13.261Z,100847
2018-03-27T00:03:41.699Z,100846
2018-03-27T00:06:10.115Z,100850
2018-03-27T00:08:38.434Z,100847
2018-03-27T00:11:06.718Z,100844
2018-03-27T00:13:35.192Z,100846
2018-03-27T00:16:03.507Z,100846
2018-03-27T00:18:32.243Z,100846
2018-03-27T00:21:00.504Z,100839
2018-03-27T00:23:28.801Z,100840
2018-03-27T00:25:57.084Z,100842
2018-03-27T00:28:43.726Z,100838
2018-03-27T00:31:30.141Z,100844
2018-03-27T00:34:17.223Z,100844
2018-03-27T00:37:04.563Z,100845
2018-03-27T00:39:50.898Z,100843
2018-03-27T00:42:43.324Z,100842
2018-03-27T00:45:11.856Z,100842
2018-03-27T00:47:40.208Z,100846
2018-03-27T00:50:08.578Z,100845
2018-03-27T00:52:37.383Z,100843
2018-03-27T00:55:05.738Z,100838
2018-03-27T00:57:34.817Z,100834
2018-03-27T01:00:03.159Z,100822
2018-03-27T01:02:31.470Z,100825
2018-03-27T01:05:05.334Z,100832
2018-03-27T01:07:33.814Z,100825
2018-03-27T01:10:02.109Z,100822
2018-03-27T01:12:30.804Z,100824
2018-03-27T01:14:59.397Z,100823
2018-03-27T01:17:27.816Z,100820
2018-03-27T01:19:56.192Z,100817
2018-03-27T01:22:24.667Z,100813
2018-03-27T01:24:53.904Z,100813
2018-03-27T01:27:22.278Z,100811
2018-03-27T01:29:50.748Z,100813
2018-03-27T01:32:19.187Z,100812
2018-03-27T01:34:48.374Z,100814
2018-03-27T01:37:16.708Z,100816
2018-03-27T01:39:45.002Z,100817
2018-03-27T01:42:14.367Z,100814
2018-03-27T01:44:42.814Z,100813
2018-03-27T01:47:11.248Z,100811
2018-03-27T01:49:40.665Z,100803
2018-03-27T01:52:09.141Z,100804
2018-03-27T01:54:37.417Z,100797
2018-03-27T01:57:05.762Z,100798
2018-03-27T01:59:34.114Z,100801
2018-03-27T02:02:03.166Z,100794
2018-03-27T02:04:31.462Z,100794
2018-03-27T02:06:59.746Z,100789
2018-03-27T02:09:28.157Z,100791
2018-03-27T02:12:02.100Z,100788
2018-03-27T02:14:36.130Z,100791
2018-03-27T02:17:09.884Z,100789
2018-03-27T02:19:43.693Z,100783
2018-03-27T02:22:12.099Z,100791
2018-03-27T02:24:40.488Z,100798
2018-03-27T02:27:08.932Z,100792
2018-03-27T02:29:37.239Z,100791
2018-03-27T02:32:05.543Z,100796
2018-03-27T02:34:33.877Z,100792
2018-03-27T02:37:02.328Z,100790
2018-03-27T02:39:31.608Z,100788
2018-03-27T02:42:00.022Z,100793
2018-03-27T02:44:28.359Z,100790
2018-03-27T02:46:56.688Z,100790
2018-03-27T02:49:25.110Z,100787
2018-03-27T02:51:53.445Z,100786
2018-03-27T02:54:22.005Z,100787
2018-03-27T02:56:50.548Z,100794
2018-03-27T02:59:18.869Z,100792
2018-03-27T03:01:47.233Z,100786
2018-03-27T03:04:17.510Z,100784
2018-03-27T03:06:45.899Z,100780
2018-03-27T03:09:14.332Z,100782
2018-03-27T03:11:42.859Z,100790
2018-03-27T03:14:11.304Z,100787
2018-03-27T03:16:39.619Z,100782
2018-03-27T03:19:07.928Z,100788
2018-03-27T03:21:37.017Z,100794
2018-03-27T03:24:06.164Z,100786
2018-03-27T03:26:34.824Z,100789
2018-03-27T03:29:03.763Z,100789
2018-03-27T03:31:32.083Z,100784
2018-03-27T03:34:01.172Z,100782
2018-03-27T03:36:31.272Z,100785
2018-03-27T03:38:59.682Z,100784
2018-03-27T03:41:27.944Z,100783
2018-03-27T03:43:57.171Z,100787
2018-03-27T03:46:25.452Z,100791
2018-03-27T03:48:53.769Z,100793
2018-03-27T03:51:22.083Z,100787
2018-03-27T03:53:50.620Z,100787
2018-03-27T03:56:19.253Z,100785
2018-03-27T03:58:47.557Z,100785
2018-03-27T04:01:15.863Z,100786
2018-03-27T04:03:44.145Z,100784
2018-03-27T04:06:13.578Z,100780
2018-03-27T04:08:42.590Z,100784
2018-03-27T04:11:10.878Z,100784
2018-03-27T04:13:39.163Z,100784
2018-03-27T04:16:07.509Z,100782
2018-03-27T04:18:35.962Z,100783
2018-03-27T04:21:05.008Z,100782
2018-03-27T04:23:33.393Z,100785
2018-03-27T04:26:01.863Z,100781
2018-03-27T04:28:30.339Z,100777
2018-03-27T04:30:58.697Z,100774
2018-03-27T04:33:27.135Z,100773
2018-03-27T04:35:56.681Z,100774
2018-03-27T04:38:25.288Z,100771
2018-03-27T04:40:53.754Z,100772
2018-03-27T04:43:22.334Z,100776
2018-03-27T04:45:50.834Z,100773
2018-03-27T04:48:19.242Z,100774
2018-03-27T04:50:47.654Z,100777
2018-03-27T04:53:16.724Z,100775
2018-03-27T04:55:45.139Z,100773
2018-03-27T04:58:13.643Z,100773
2018-03-27T05:00:41.966Z,100771
2018-03-27T05:03:10.568Z,100775
2018-03-27T05:05:39.818Z,100765
2018-03-27T05:08:09.969Z,100764
2018-03-27T05:10:38.326Z,100763
2018-03-27T05:13:06.615Z,100761
2018-03-27T05:15:34.894Z,100764
2018-03-27T05:18:04.245Z,100762
2018-03-27T05:20:32.615Z,100756
2018-03-27T05:23:01.170Z,100756
2018-03-27T05:25:29.576Z,100755
2018-03-27T05:27:57.923Z,100747
2018-03-27T05:30:26.189Z,100746
2018-03-27T05:32:54.514Z,100749
2018-03-27T05:35:23.650Z,100747
2018-03-27T05:37:52.171Z,100739
2018-03-27T05:40:21.197Z,100746
2018-03-27T05:42:49.613Z,100742
2018-03-27T05:45:17.949Z,100742
2018-03-27T05:47:46.422Z,100748
2018-03-27T05:50:15.118Z,100746
2018-03-27T05:52:43.404Z,100746
2018-03-27T05:55:11.818Z,100751
2018-03-27T05:57:41.025Z,100746
2018-03-27T06:00:09.352Z,100750
2018-03-27T06:02:37.798Z,100748
2018-03-27T06:05:06.906Z,100748
2018-03-27T06:07:35.359Z,100749
2018-03-27T06:10:05.854Z,100747
2018-03-27T06:12:34.325Z,100745
2018-03-27T06:15:02.618Z,100748
2018-03-27T06:17:31.019Z,100746
2018-03-27T06:19:59.413Z,100743
2018-03-27T06:22:28.460Z,100739
2018-03-27T06:24:56.945Z,100740
2018-03-27T06:27:25.452Z,100747
2018-03-27T06:29:53.934Z,100740
2018-03-27T06:32:22.417Z,100736
2018-03-27T06:34:50.813Z,100734
2018-03-27T06:37:19.218Z,100735
2018-03-27T06:39:47.680Z,100731
2018-03-27T06:42:16.231Z,100736
2018-03-27T06:44:44.825Z,100737
2018-03-27T06:47:14.035Z,100730
2018-03-27T06:49:43.113Z,100724
2018-03-27T06:52:12.155Z,100721
2018-03-27T06:54:40.463Z,100715
2018-03-27T06:57:08.861Z,100713
2018-03-27T06:59:37.328Z,100710
2018-03-27T07:02:06.010Z,100709
2018-03-27T07:04:35.841Z,100707
2018-03-27T07:07:04.396Z,100702
2018-03-27T07:09:32.813Z,100699
2018-03-27T07:12:01.245Z,100694
2018-03-27T07:14:29.655Z,100690
2018-03-27T07:16:58.204Z,100699
2018-03-27T07:19:26.514Z,100701
2018-03-27T07:21:55.814Z,100693
2018-03-27T07:24:24.221Z,100688
2018-03-27T07:26:52.535Z,100683
2018-03-27T07:29:20.895Z,100683
2018-03-27T07:31:49.243Z,100680
2018-03-27T07:34:18.432Z,100684
2018-03-27T07:36:47.698Z,100683
2018-03-27T07:39:16.327Z,100681
2018-03-27T07:41:44.673Z,100677
2018-03-27T07:44:14.273Z,100674
2018-03-27T07:46:42.717Z,100676
2018-03-27T07:49:11.239Z,100671
2018-03-27T07:51:39.564Z,100675
2018-03-27T07:54:07.891Z,100667
2018-03-27T07:56:36.336Z,100665
2018-03-27T07:59:04.724Z,100659
2018-03-27T08:01:33.190Z,100662
2018-03-27T08:04:01.816Z,100655
2018-03-27T08:06:30.204Z,100646
2018-03-27T08:08:58.526Z,100643
2018-03-27T08:11:26.919Z,100633
2018-03-27T08:13:56.156Z,100630
2018-03-27T08:16:24.628Z,100628
2018-03-27T08:18:53.124Z,100618
2018-03-27T08:21:21.530Z,100613
2018-03-27T08:23:49.851Z,100604
2018-03-27T08:26:18.169Z,100604
2018-03-27T08:28:47.250Z,100601
2018-03-27T08:31:15.648Z,100593
2018-03-27T08:33:44.735Z,100590
2018-03-27T08:36:13.924Z,100591
2018-03-27T08:38:42.204Z,100585
2018-03-27T08:41:11.362Z,100578
2018-03-27T08:43:39.673Z,100579
2018-03-27T08:46:08.058Z,100575
2018-03-27T08:48:37.321Z,100570
2018-03-27T08:51:05.613Z,100568
2018-03-27T08:53:34.131Z,100568
2018-03-27T08:56:03.229Z,100561
2018-03-27T08:58:32.281Z,100561
2018-03-27T09:01:02.074Z,100560
2018-03-27T09:03:30.396Z,100562
2018-03-27T09:05:59.546Z,100555
2018-03-27T09:08:27.991Z,100557
2018-03-27T09:10:56.312Z,100565
2018-03-27T09:13:24.669Z,100551
2018-03-27T09:15:54.110Z,100549
2018-03-27T09:18:22.759Z,100546
2018-03-27T09:20:51.351Z,100539
2018-03-27T09:23:19.789Z,100539
2018-03-27T09:25:48.545Z,100536
2018-03-27T09:28:16.984Z,100538
2018-03-27T09:30:45.336Z,100531
2018-03-27T09:33:13.832Z,100525
2018-03-27T09:35:42.425Z,100517
2018-03-27T09:38:10.790Z,100520
2018-03-27T09:40:39.150Z,100521
2018-03-27T09:43:08.394Z,100519
2018-03-27T09:45:38.001Z,100521
2018-03-27T09:48:06.554Z,100521
2018-03-27T09:50:34.897Z,100516
2018-03-27T09:53:04.125Z,100514
2018-03-27T09:55:32.583Z,100509
2018-03-27T09:58:01.713Z,100506
2018-03-27T10:00:35.526Z,100501
2018-03-27T10:03:03.841Z,100489
2018-03-27T10:05:33.022Z,100484
2018-03-27T10:08:01.576Z,100490
2018-03-27T10:10:30.286Z,100481
2018-03-27T10:12:58.607Z,100484
2018-03-27T10:15:27.191Z,100482
2018-03-27T10:17:56.488Z,100475
2018-03-27T10:20:25.588Z,100476
2018-03-27T10:22:53.881Z,100472
2018-03-27T10:27:57.038Z,100463
2018-03-27T10:30:26.426Z,100465
2018-03-27T10:32:54.728Z,100452
2018-03-27T10:35:23.023Z,100449
2018-03-27T10:37:52.228Z,100451
2018-03-27T10:40:21.302Z,100442
2018-03-27T10:42:51.427Z,100441
2018-03-27T10:45:20.563Z,100431
2018-03-27T10:47:48.883Z,100428
2018-03-27T10:50:17.316Z,100416
2018-03-27T10:52:45.734Z,100419
2018-03-27T10:55:14.163Z,100404
2018-03-27T10:57:42.751Z,100411
2018-03-27T11:00:11.115Z,100411
2018-03-27T11:02:40.387Z,100411
2018-03-27T11:05:08.746Z,100415
2018-03-27T11:07:37.216Z,100406
2018-03-27T11:10:05.659Z,100401
2018-03-27T11:12:35.037Z,100393
2018-03-27T11:15:03.685Z,100388
2018-03-27T11:17:32.055Z,100391
2018-03-27T11:20:00.487Z,100388
2018-03-27T11:22:29.804Z,100376
2018-03-27T11:24:58.256Z,100376
2018-03-27T11:27:27.636Z,100374
2018-03-27T11:29:55.992Z,100370
2018-03-27T11:32:24.461Z,100363
2018-03-27T11:34:54.137Z,100356
2018-03-27T11:37:22.796Z,100347
2018-03-27T11:39:51.137Z,100336
2018-03-27T11:42:19.498Z,100334
2018-03-27T11:44:47.878Z,100325
2018-03-27T11:47:16.569Z,100311
2018-03-27T11:49:44.925Z,100313
2018-03-27T11:52:13.227Z,100317
2018-03-27T11:54:41.596Z,100311
2018-03-27T11:57:10.651Z,100303
2018-03-27T11:59:38.946Z,100307
2018-03-27T12:02:08.147Z,100302
2018-03-27T12:04:37.335Z,100294
2018-03-27T12:07:07.292Z,100291
2018-03-27T12:09:35.610Z,100282
2018-03-27T12:12:04.839Z,100285
2018-03-27T12:14:34.062Z,100280
2018-03-27T12:17:02.529Z,100279
2018-03-27T12:19:30.885Z,100276
2018-03-27T12:21:59.946Z,100246
2018-03-27T12:24:28.289Z,100268
2018-03-27T12:26:56.656Z,100259
2018-03-27T12:29:25.096Z,100259
2018-03-27T12:31:54.336Z,100251
2018-03-27T12:34:22.867Z,100246
2018-03-27T12:36:51.289Z,100240
2018-03-27T12:39:20.693Z,100238
2018-03-27T12:41:49.006Z,100232
2018-03-27T12:44:17.448Z,100233
2018-03-27T12:46:46.091Z,100231
2018-03-27T12:49:14.553Z,100224
2018-03-27T12:51:42.905Z,100232
2018-03-27T12:54:11.376Z,100225
2018-03-27T12:56:39.737Z,100219
2018-03-27T12:59:08.957Z,100215
2018-03-27T13:01:37.469Z,100216
2018-03-27T13:04:05.830Z,100209
2018-03-27T13:06:34.196Z,100209
2018-03-27T13:09:02.587Z,100208
2018-03-27T13:11:31.158Z,100201
2018-03-27T13:13:59.747Z,100188
2018-03-27T13:16:28.121Z,100186
2018-03-27T13:18:56.474Z,100181
2018-03-27T13:21:25.698Z,100169
2018-03-27T13:23:54.036Z,100164
2018-03-27T13:26:23.110Z,100163
2018-03-27T13:28:51.430Z,100156
2018-03-27T13:31:19.813Z,100152
2018-03-27T13:33:48.586Z,100150
2018-03-27T13:36:17.842Z,100146
2018-03-27T13:38:47.058Z,100140
2018-03-27T13:41:15.393Z,100141
2018-03-27T13:43:43.863Z,100136
2018-03-27T13:46:12.328Z,100131
2018-03-27T13:48:40.777Z,100132
2018-03-27T13:51:09.181Z,100121
2018-03-27T13:53:37.667Z,100122
2018-03-27T13:56:06.009Z,100112
2018-03-27T13:58:34.297Z,100109
2018-03-27T14:01:03.005Z,100106
2018-03-27T14:03:31.455Z,100102
2018-03-27T14:05:59.946Z,100099
2018-03-27T14:08:29.583Z,100090
2018-03-27T14:10:58.121Z,100087
2018-03-27T14:13:26.504Z,100092
2018-03-27T14:15:54.921Z,100087
2018-03-27T14:18:23.253Z,100083
2018-03-27T14:20:51.622Z,100084
2018-03-27T14:23:20.155Z,100095
2018-03-27T14:25:48.651Z,100092
2018-03-27T14:28:17.113Z,100093
2018-03-27T14:30:45.572Z,100088
2018-03-27T14:33:13.874Z,100095
2018-03-27T14:35:42.505Z,100084
2018-03-27T14:38:10.861Z,100086
2018-03-27T14:40:39.339Z,100083
2018-03-27T14:43:10.577Z,100081
2018-03-27T14:45:39.048Z,100075
2018-03-27T14:48:07.612Z,100080
2018-03-27T14:50:36.750Z,100081
2018-03-27T14:53:05.253Z,100074
2018-03-27T14:55:33.559Z,100074
2018-03-27T14:58:02.902Z,100076
2018-03-27T15:00:31.359Z,100072
2018-03-27T15:02:59.966Z,100072
2018-03-27T15:05:28.363Z,100068
2018-03-27T15:07:56.751Z,100060
2018-03-27T15:10:25.079Z,100062
2018-03-27T15:12:54.625Z,100052
2018-03-27T15:15:22.997Z,100051
2018-03-27T15:17:52.442Z,100051
2018-03-27T15:20:21.767Z,100042
2018-03-27T15:22:50.881Z,100040
2018-03-27T15:25:19.457Z,100030
2018-03-27T15:27:47.935Z,100027
2018-03-27T15:30:16.530Z,100027
2018-03-27T15:32:44.939Z,100017
2018-03-27T15:35:13.352Z,100017
2018-03-27T15:37:42.461Z,100003
2018-03-27T15:40:11.064Z,100002
2018-03-27T15:42:39.782Z,100011
2018-03-27T15:45:08.157Z,100011
2018-03-27T15:47:36.512Z,100008
2018-03-27T15:50:05.068Z,100012
2018-03-27T15:52:33.823Z,100006
2018-03-27T15:55:02.149Z,100003
2018-03-27T15:57:30.580Z,100011
2018-03-27T16:00:00.562Z,100010
2018-03-27T16:02:28.881Z,100008
2018-03-27T16:04:58.117Z,100004
2018-03-27T16:07:26.489Z,100008
2018-03-27T16:09:55.330Z,100000
2018-03-27T16:12:23.645Z,99999
2018-03-27T16:14:52.082Z,99996
2018-03-27T16:17:21.104Z,99991
2018-03-27T16:19:50.433Z,99989
2018-03-27T16:22:18.752Z,99985
2018-03-27T16:24:47.365Z,99987
2018-03-27T16:27:16.646Z,99981
2018-03-27T16:29:45.109Z,99975
2018-03-27T16:32:13.579Z,99974
2018-03-27T16:34:41.939Z,99972
2018-03-27T16:37:10.379Z,99966
2018-03-27T16:39:39.559Z,99963
2018-03-27T16:42:07.967Z,99960
2018-03-27T16:44:37.133Z,99947
2018-03-27T16:47:06.282Z,99945
2018-03-27T16:49:34.717Z,99942
2018-03-27T16:52:03.058Z,99945
2018-03-27T16:54:31.493Z,99941
2018-03-27T16:57:00.737Z,99943
2018-03-27T16:59:29.636Z,99945
2018-03-27T17:01:58.177Z,99943
2018-03-27T17:04:26.596Z,99942
2018-03-27T17:06:54.942Z,99946
2018-03-27T17:09:24.331Z,99940
2018-03-27T17:11:52.755Z,99938
2018-03-27T17:14:21.273Z,99936
2018-03-27T17:16:49.860Z,99936
2018-03-27T17:19:20.040Z,99934
2018-03-27T17:21:49.194Z,99933
2018-03-27T17:24:19.352Z,99931
2018-03-27T17:26:47.724Z,99929
2018-03-27T17:29:16.015Z,99933
2018-03-27T17:31:44.588Z,99928
2018-03-27T17:34:13.082Z,99925
2018-03-27T17:36:41.439Z,99931
2018-03-27T17:39:09.849Z,99928
2018-03-27T17:41:38.276Z,99932
2018-03-27T17:44:06.649Z,99926
2018-03-27T17:46:35.266Z,99927
2018-03-27T17:49:03.805Z,99931
2018-03-27T17:51:32.133Z,99929
2018-03-27T17:54:01.589Z,99936
2018-03-27T17:56:31.822Z,99934
2018-03-27T17:59:01.134Z,99925
2018-03-27T18:01:29.603Z,99924
2018-03-27T18:03:58.013Z,99931
2018-03-27T18:06:26.498Z,99927
2018-03-27T18:08:55.196Z,99935
2018-03-27T18:11:23.781Z,99934
2018-03-27T18:13:52.969Z,99931
2018-03-27T18:16:21.340Z,99929
2018-03-27T18:18:49.719Z,99928
2018-03-27T18:21:18.105Z,99931
2018-03-27T18:23:46.476Z,99934
2018-03-27T18:26:15.189Z,99935
2018-03-27T18:28:43.569Z,99944
2018-03-27T18:31:12.107Z,99940
2018-03-27T18:33:40.439Z,99903
2018-03-27T18:36:10.714Z,99944
2018-03-27T18:38:39.532Z,99943
2018-03-27T18:41:08.016Z,99939
2018-03-27T18:43:36.641Z,99939
2018-03-27T18:46:05.044Z,99938
2018-03-27T18:48:33.357Z,99932
2018-03-27T18:51:01.729Z,99930
2018-03-27T18:53:30.101Z,99925
2018-03-27T18:55:58.509Z,99924
2018-03-27T18:58:27.640Z,99924
2018-03-27T19:00:55.982Z,99914
2018-03-27T19:03:25.229Z,99905
2018-03-27T19:05:53.590Z,99900
2018-03-27T19:08:22.007Z,99902
2018-03-27T19:10:50.416Z,99902
2018-03-27T19:13:18.733Z,99895
2018-03-27T19:15:47.024Z,99897
2018-03-27T19:18:15.385Z,99897
2018-03-27T19:20:43.877Z,99901
2018-03-27T19:23:12.313Z,99895
2018-03-27T19:25:40.636Z,99890
2018-03-27T19:28:09.079Z,99889
2018-03-27T19:30:38.191Z,99885
2018-03-27T19:33:06.573Z,99874
2018-03-27T19:35:35.657Z,99873
2018-03-27T19:38:04.716Z,99873
2018-03-27T19:40:33.155Z,99869
2018-03-27T19:43:01.541Z,99868
2018-03-27T19:45:29.923Z,99868
2018-03-27T19:47:58.240Z,99865
2018-03-27T19:50:26.597Z,99853
2018-03-27T19:52:55.018Z,99856
2018-03-27T19:55:23.374Z,99850
2018-03-27T19:57:51.690Z,99846
2018-03-27T20:00:20.263Z,99851
2018-03-27T20:02:50.714Z,99843
2018-03-27T20:05:19.039Z,99847
2018-03-27T20:07:47.983Z,99840
2018-03-27T20:10:16.364Z,99835
2018-03-27T20:12:44.690Z,99834
2018-03-27T20:15:13.884Z,99837
2018-03-27T20:17:42.216Z,99827
2018-03-27T20:20:10.679Z,99823
2018-03-27T20:22:39.130Z,99821
2018-03-27T20:25:08.390Z,99819
2018-03-27T20:27:37.426Z,99815
2018-03-27T20:30:06.859Z,99815
2018-03-27T20:32:35.558Z,99810
2018-03-27T20:35:04.282Z,99810
2018-03-27T20:37:32.709Z,99807
2018-03-27T20:40:01.057Z,99804
2018-03-27T20:42:30.276Z,99802
2018-03-27T20:44:58.637Z,99795
2018-03-27T20:47:27.839Z,99794
2018-03-27T20:49:56.942Z,99787
2018-03-27T20:52:26.254Z,99783
2018-03-27T20:54:54.670Z,99780
2018-03-27T20:57:23.247Z,99774
2018-03-27T20:59:51.684Z,99765
2018-03-27T21:02:20.071Z,99771
2018-03-27T21:04:48.416Z,99764
2018-03-27T21:07:17.008Z,99760
2018-03-27T21:09:47.261Z,99757
2018-03-27T21:12:15.785Z,99754
2018-03-27T21:14:44.182Z,99749
2018-03-27T21:17:13.355Z,99748
2018-03-27T21:19:41.790Z,99745
2018-03-27T21:22:10.272Z,99746
2018-03-27T21:24:38.688Z,99751
2018-03-27T21:27:07.279Z,99746
2018-03-27T21:29:35.620Z,99744
2018-03-27T21:32:03.959Z,99749
2018-03-27T21:34:32.366Z,99748
2018-03-27T21:37:00.769Z,99743
2018-03-27T21:39:29.119Z,99743
2018-03-27T21:41:57.607Z,99738
2018-03-27T21:44:26.135Z,99742
2018-03-27T21:46:54.517Z,99741
2018-03-27T21:49:22.904Z,99739
2018-03-27T21:51:51.259Z,99739
2018-03-27T21:54:19.821Z,99741
2018-03-27T21:56:48.140Z,99733
2018-03-27T21:59:16.454Z,99733
2018-03-27T22:01:45.603Z,99736
2018-03-27T22:04:13.957Z,99737
2018-03-27T22:06:42.301Z,99733
2018-03-27T22:09:12.413Z,99736
2018-03-27T22:11:41.728Z,99728
2018-03-27T22:14:10.175Z,99728
2018-03-27T22:16:38.677Z,99725
2018-03-27T22:19:07.821Z,99721
2018-03-27T22:21:36.523Z,99719
2018-03-27T22:24:06.460Z,99717
2018-03-27T22:26:35.794Z,99717
2018-03-27T22:29:04.126Z,99713
2018-03-27T22:31:32.555Z,99715
2018-03-27T22:34:00.866Z,99708
2018-03-27T22:36:29.191Z,99705
2018-03-27T22:38:58.277Z,99703
2018-03-27T22:41:27.401Z,99702
2018-03-27T22:43:55.711Z,99691
2018-03-27T22:46:23.986Z,99699
2018-03-27T22:48:52.315Z,99694
2018-03-27T22:51:20.629Z,99698
2018-03-27T22:53:48.905Z,99698
2018-03-27T22:56:17.457Z,99706
2018-03-27T22:58:45.831Z,99698
2018-03-27T23:01:14.317Z,99699
2018-03-27T23:03:42.664Z,99702
2018-03-27T23:06:11.066Z,99696
2018-03-27T23:08:39.605Z,99698
2018-03-27T23:11:08.174Z,99690
2018-03-27T23:13:36.530Z,99692
2018-03-27T23:16:04.836Z,99696
2018-03-27T23:18:33.166Z,99697
2018-03-27T23:21:01.550Z,99696
2018-03-27T23:23:30.031Z,99698
2018-03-27T23:25:58.546Z,99697
2018-03-27T23:28:26.837Z,99697
2018-03-27T23:30:55.148Z,99691
2018-03-27T23:33:24.351Z,99688
2018-03-27T23:35:53.615Z,99691
2018-03-27T23:38:23.219Z,99693
2018-03-27T23:40:54.160Z,99691
2018-03-27T23:43:25.080Z,99697
2018-03-27T23:45:53.414Z,99703
2018-03-27T23:48:21.835Z,99701
2018-03-27T23:50:50.161Z,99702
2018-03-27T23:53:19.254Z,99699
2018-03-27T23:55:47.550Z,99695
2018-03-27T23:58:15.946Z,99698
